createdAt,value
2018-01-30T00:01:23.215Z,4.90
2018-01-30T00:03:49.489Z,4.90
2018-01-30T00:06:15.771Z,4.90
2018-01-30T00:08:42.080Z,4.90
2018-01-30T00:11:09.056Z,4.80
2018-01-30T00:13:35.276Z,4.80
2018-01-30T00:16:16.480Z,4.80
2018-01-30T00:18:42.725Z,4.80
2018-01-30T00:21:08.973Z,4.70
2018-01-30T00:23:35.212Z,4.70
2018-01-30T00:26:01.492Z,4.70
2018-01-30T00:28:27.776Z,4.60
2018-01-30T00:30:54.797Z,4.70
2018-01-30T00:33:21.080Z,4.60
2018-01-30T00:35:47.352Z,4.70
2018-01-30T00:38:13.567Z,4.70
2018-01-30T00:40:39.868Z,4.80
2018-01-30T00:43:06.156Z,4.80
2018-01-30T00:45:32.440Z,4.80
2018-01-30T00:47:58.661Z,4.80
2018-01-30T00:50:24.916Z,4.90
2018-01-30T00:52:51.156Z,4.90
2018-01-30T00:55:17.410Z,4.90
2018-01-30T00:57:44.424Z,4.70
2018-01-30T01:00:10.743Z,4.70
2018-01-30T01:02:37.744Z,4.70
2018-01-30T01:05:04.761Z,4.70
2018-01-30T01:07:30.940Z,4.70
2018-01-30T01:09:57.188Z,4.70
2018-01-30T01:12:23.452Z,4.60
2018-01-30T01:14:49.666Z,4.70
2018-01-30T01:17:15.936Z,4.60
2018-01-30T01:19:42.167Z,4.70
2018-01-30T01:22:08.409Z,4.70
2018-01-30T01:24:34.643Z,4.70
2018-01-30T01:27:00.915Z,4.80
2018-01-30T01:29:27.148Z,4.80
2018-01-30T01:31:53.379Z,4.90
2018-01-30T01:34:19.611Z,4.90
2018-01-30T01:36:45.867Z,4.90
2018-01-30T01:39:12.065Z,5.00
2018-01-30T01:41:38.379Z,5.00
2018-01-30T01:44:04.595Z,5.00
2018-01-30T01:46:30.856Z,5.00
2018-01-30T01:48:57.052Z,5.00
2018-01-30T01:51:23.332Z,5.00
2018-01-30T01:53:49.543Z,5.10
2018-01-30T01:56:16.536Z,5.10
2018-01-30T01:58:42.749Z,5.00
2018-01-30T02:01:09.022Z,5.10
2018-01-30T02:03:35.241Z,5.10
2018-01-30T02:06:01.523Z,5.10
2018-01-30T02:08:28.555Z,5.00
2018-01-30T02:10:55.536Z,5.10
2018-01-30T02:13:21.752Z,5.00
2018-01-30T02:15:48.029Z,5.10
2018-01-30T02:18:14.236Z,5.00
2018-01-30T02:20:40.668Z,5.00
2018-01-30T15:09:59.024Z,6.40
2018-01-30T15:12:25.207Z,6.30
2018-01-30T15:14:52.257Z,6.70
2018-01-30T15:17:19.195Z,7.00
2018-01-30T15:19:46.447Z,7.00
2018-01-30T15:22:13.453Z,7.00
2018-01-30T15:24:39.656Z,7.00
2018-01-30T15:27:05.928Z,6.80
2018-01-30T15:29:32.119Z,6.40
2018-01-30T15:31:58.327Z,6.20
2018-01-30T15:34:24.519Z,6.10
2018-01-30T15:36:50.724Z,6.10
2018-01-30T15:39:16.925Z,6.00
2018-01-30T15:41:43.197Z,5.90
2018-01-30T15:44:09.389Z,5.80
2018-01-30T15:46:35.599Z,5.80
2018-01-30T15:49:01.819Z,5.60
2018-01-30T15:51:28.037Z,5.50
2018-01-30T15:53:54.980Z,5.20
2018-01-30T15:56:21.923Z,5.20
2018-01-30T15:58:48.909Z,5.20
2018-01-30T16:01:15.132Z,5.20
2018-01-30T16:03:41.361Z,5.20
2018-01-30T16:06:07.565Z,5.20
2018-01-30T16:08:33.777Z,5.20
2018-01-30T16:11:00.728Z,5.20
2018-01-30T16:13:27.693Z,5.10
2018-01-30T16:15:53.900Z,5.10
2018-01-30T16:18:20.862Z,5.10
2018-01-30T16:20:47.069Z,5.10
2018-01-30T16:23:14.056Z,5.10
2018-01-30T16:25:55.233Z,5.10
2018-01-30T16:28:21.457Z,5.20
2018-01-30T16:30:47.648Z,5.30
2018-01-30T16:33:14.625Z,5.30
2018-01-30T16:35:40.820Z,5.30
2018-01-30T16:38:07.780Z,5.30
2018-01-30T16:40:33.979Z,5.30
2018-01-30T16:43:00.205Z,5.40
2018-01-30T16:45:26.443Z,5.50
2018-01-30T16:47:52.656Z,5.70
2018-01-30T16:50:18.868Z,5.80
2018-01-30T16:52:45.101Z,5.90
2018-01-30T16:55:11.284Z,6.00
2018-01-30T16:57:37.496Z,6.00
2018-01-30T17:00:04.469Z,5.70
2018-01-30T17:02:30.688Z,5.60
2018-01-30T17:04:56.868Z,5.50
2018-01-30T17:07:23.086Z,5.50
2018-01-30T17:09:49.275Z,5.40
2018-01-30T17:12:15.498Z,5.30
2018-01-30T17:14:41.711Z,5.20
2018-01-30T17:17:08.744Z,5.00
2018-01-30T17:19:35.743Z,4.90
2018-01-30T17:22:01.997Z,4.90
2018-01-30T17:24:28.204Z,4.80
2018-01-30T17:26:55.268Z,4.70
2018-01-30T17:29:21.464Z,4.60
2018-01-30T17:31:47.733Z,4.60
2018-01-30T17:34:13.935Z,4.60
2018-01-30T17:36:40.897Z,4.60
2018-01-30T17:39:07.207Z,4.60
2018-01-30T17:41:33.472Z,4.60
2018-01-30T17:43:59.771Z,4.60
2018-01-30T17:46:25.987Z,4.50
2018-01-30T17:48:52.237Z,4.50
2018-01-30T17:51:19.323Z,4.40
2018-01-30T17:53:46.260Z,4.40
2018-01-30T17:56:12.468Z,4.40
2018-01-30T17:58:38.665Z,4.30
2018-01-30T18:01:04.882Z,4.20
2018-01-30T18:03:31.068Z,4.20
2018-01-30T18:05:57.297Z,4.10
2018-01-30T18:08:23.604Z,4.10
2018-01-30T18:10:49.787Z,4.10
2018-01-30T18:13:15.991Z,4.10
2018-01-30T18:15:42.923Z,4.00
2018-01-30T18:18:09.152Z,4.00
2018-01-30T18:20:35.364Z,4.00
2018-01-30T18:23:01.594Z,3.90
2018-01-30T18:25:27.818Z,3.90
2018-01-30T18:27:54.032Z,3.90
2018-01-30T18:30:20.248Z,3.90
2018-01-30T18:32:46.460Z,3.90
2018-01-30T18:35:12.700Z,3.90
2018-01-30T18:37:38.964Z,3.80
2018-01-30T18:40:05.157Z,3.80
2018-01-30T18:42:31.372Z,3.90
2018-01-30T18:44:57.583Z,3.90
2018-01-30T18:47:24.565Z,3.90
2018-01-30T18:49:50.763Z,3.80
2018-01-30T18:52:16.984Z,3.90
2018-01-30T18:54:43.204Z,3.80
2018-01-30T18:57:10.190Z,3.60
2018-01-30T18:59:36.382Z,3.60
2018-01-30T19:02:03.361Z,3.60
2018-01-30T19:04:29.604Z,3.60
2018-01-30T19:06:55.900Z,3.50
2018-01-30T19:09:22.174Z,3.50
2018-01-30T19:11:48.562Z,3.50
2018-01-30T19:14:14.748Z,3.50
2018-01-30T19:16:41.059Z,3.50
2018-01-30T19:19:07.269Z,3.50
2018-01-30T19:21:33.544Z,3.60
2018-01-30T19:23:59.995Z,3.60
2018-01-30T19:26:26.973Z,3.70
2018-01-30T19:28:53.206Z,3.70
2018-01-30T19:31:20.492Z,3.80
2018-01-30T19:33:46.775Z,3.80
2018-01-30T19:36:13.031Z,3.80
2018-01-30T19:38:39.219Z,3.80
2018-01-30T19:41:05.454Z,3.70
2018-01-30T19:43:31.648Z,3.70
2018-01-30T19:45:57.998Z,3.60
2018-01-30T19:48:24.949Z,3.70
2018-01-30T19:50:52.165Z,3.70
2018-01-30T19:53:18.359Z,3.70
2018-01-30T19:55:44.643Z,3.60
2018-01-30T19:58:11.629Z,3.50
2018-01-30T20:00:37.895Z,3.50
2018-01-30T20:03:04.100Z,3.40
2018-01-30T20:05:30.316Z,3.50
2018-01-30T20:07:56.541Z,3.60
2018-01-30T20:10:22.724Z,3.60
2018-01-30T20:12:49.680Z,3.80
2018-01-30T20:15:16.624Z,3.70
2018-01-30T20:17:43.604Z,3.80
2018-01-30T20:20:09.800Z,3.70
2018-01-30T20:22:36.764Z,3.80
2018-01-30T20:25:02.987Z,3.80
2018-01-30T20:27:29.273Z,3.80
2018-01-30T20:29:55.476Z,3.70
2018-01-30T20:32:21.703Z,3.70
2018-01-30T20:34:47.922Z,3.70
2018-01-30T20:37:20.428Z,3.70
2018-01-30T20:39:46.631Z,3.70
2018-01-30T20:42:12.848Z,3.60
2018-01-30T20:44:39.047Z,3.60
2018-01-30T20:47:06.001Z,3.70
2018-01-30T20:49:32.205Z,3.70
2018-01-30T20:51:59.237Z,3.80
2018-01-30T20:54:25.516Z,3.80
2018-01-30T20:56:52.108Z,3.80
2018-01-30T20:59:18.323Z,3.80
2018-01-30T21:01:44.551Z,3.80
2018-01-30T21:04:10.811Z,3.80
2018-01-30T21:06:37.780Z,3.70
2018-01-30T21:09:04.151Z,3.70
2018-01-30T21:11:30.388Z,3.80
2018-01-30T21:13:56.585Z,3.80
2018-01-30T21:16:22.800Z,3.70
2018-01-30T21:18:48.980Z,3.70
2018-01-30T21:21:15.196Z,3.70
2018-01-30T21:23:41.381Z,3.70
2018-01-30T21:26:07.628Z,3.70
2018-01-30T21:28:33.828Z,3.80
2018-01-30T21:31:00.120Z,3.80
2018-01-30T21:33:26.460Z,3.80
2018-01-30T21:35:52.697Z,3.80
2018-01-30T21:38:19.689Z,3.80
2018-01-30T21:40:45.999Z,3.80
2018-01-30T21:43:12.269Z,3.80
2018-01-30T21:45:38.596Z,3.90
2018-01-30T21:48:04.852Z,3.90
2018-01-30T21:50:31.196Z,3.80
2018-01-30T21:52:58.453Z,3.80
2018-01-30T21:55:25.530Z,3.80
2018-01-30T21:57:52.133Z,3.80
2018-01-30T22:00:19.096Z,3.70
2018-01-30T22:02:45.369Z,3.70
2018-01-30T22:05:12.420Z,3.50
2018-01-30T22:07:38.641Z,3.50
2018-01-30T22:10:04.897Z,3.50
2018-01-30T22:12:31.171Z,3.50
2018-01-30T22:14:57.488Z,3.40
2018-01-30T22:17:23.737Z,3.40
2018-01-30T22:19:49.977Z,3.40
2018-01-30T22:22:16.188Z,3.40
2018-01-30T22:24:42.456Z,3.40
2018-01-30T22:27:08.732Z,3.40
2018-01-30T22:29:35.023Z,3.50
2018-01-30T22:32:01.253Z,3.50
2018-01-30T22:34:27.515Z,3.50
2018-01-30T22:36:53.792Z,3.40
2018-01-30T22:39:20.003Z,3.40
2018-01-30T22:41:46.217Z,3.40
2018-01-30T22:44:12.474Z,3.40
2018-01-30T22:46:38.743Z,3.50
